NKS3110 KFLL-KSDF
Flight info
| Callsign | NKS3110 |
|---|---|
| Flight time | N/A |
| Altitude | 34000 |
| Route | FRSBE2 STYMY Q77 WIGVO GLAZR LEDDL1 |
| Aircraft | A321/M-SDE3FGHIRWY/LB1 |
Departure
| Time | 2026-05-08 05:21 |
|---|---|
| Airport | Fort Lauderdale Hollywood International Airport (KFLL) |
Arrival
| Time | N/A |
|---|---|
| Airport | Louisville Muhammad Ali International Airport (KSDF) |
| Time | Latitude | Longitude | Altitude | Speed | Heading |
|---|---|---|---|---|---|
| 2026-05-08 03:49 | 26.06934 | -80.14606 | 16 ft | 0 kts | 90° |
| 2026-05-08 05:08 | 26.06934 | -80.14621 | 18 ft | 4 kts | 90° |
| 2026-05-08 05:08 | 26.06934 | -80.14649 | 19 ft | 2 kts | 90° |
| 2026-05-08 05:08 | 26.06937 | -80.14676 | 18 ft | 4 kts | 114° |
| 2026-05-08 05:09 | 26.06952 | -80.14697 | 18 ft | 4 kts | 161° |
| 2026-05-08 05:09 | 26.06975 | -80.14699 | 20 ft | 4 kts | 205° |
| 2026-05-08 05:09 | 26.06993 | -80.14683 | 18 ft | 4 kts | 260° |
| 2026-05-08 05:09 | 26.06994 | -80.14656 | 17 ft | 2 kts | 270° |
| 2026-05-08 05:10 | 26.06994 | -80.14653 | 17 ft | 0 kts | 270° |
| 2026-05-08 05:12 | 26.06994 | -80.14664 | 17 ft | 3 kts | 270° |
| 2026-05-08 05:12 | 26.06991 | -80.14696 | 18 ft | 5 kts | 256° |
| 2026-05-08 05:12 | 26.06967 | -80.14738 | 17 ft | 8 kts | 231° |
| 2026-05-08 05:13 | 26.06934 | -80.14791 | 16 ft | 8 kts | 252° |
| 2026-05-08 05:13 | 26.06951 | -80.14843 | 18 ft | 7 kts | 307° |
| 2026-05-08 05:13 | 26.06986 | -80.14880 | 16 ft | 7 kts | 317° |
| 2026-05-08 05:13 | 26.07022 | -80.14918 | 16 ft | 8 kts | 315° |
| 2026-05-08 05:14 | 26.07067 | -80.14967 | 16 ft | 10 kts | 315° |
| 2026-05-08 05:14 | 26.07120 | -80.15025 | 16 ft | 10 kts | 315° |
| 2026-05-08 05:14 | 26.07166 | -80.15075 | 17 ft | 8 kts | 315° |
| 2026-05-08 05:14 | 26.07204 | -80.15124 | 17 ft | 8 kts | 296° |
| 2026-05-08 05:15 | 26.07209 | -80.15181 | 16 ft | 7 kts | 271° |
| 2026-05-08 05:15 | 26.07210 | -80.15240 | 16 ft | 8 kts | 270° |
| 2026-05-08 05:15 | 26.07231 | -80.15296 | 16 ft | 8 kts | 328° |
| 2026-05-08 05:15 | 26.07291 | -80.15301 | 16 ft | 9 kts | 1° |
| 2026-05-08 05:16 | 26.07360 | -80.15300 | 16 ft | 10 kts | 1° |
| 2026-05-08 05:16 | 26.07434 | -80.15300 | 16 ft | 11 kts | 0° |
| 2026-05-08 05:16 | 26.07511 | -80.15299 | 16 ft | 10 kts | 1° |
| 2026-05-08 05:16 | 26.07562 | -80.15338 | 16 ft | 10 kts | 286° |
| 2026-05-08 05:17 | 26.07564 | -80.15419 | 16 ft | 12 kts | 270° |
| 2026-05-08 05:17 | 26.07565 | -80.15517 | 16 ft | 13 kts | 270° |
| 2026-05-08 05:17 | 26.07565 | -80.15622 | 16 ft | 14 kts | 270° |
| 2026-05-08 05:17 | 26.07566 | -80.15731 | 16 ft | 14 kts | 270° |
| 2026-05-08 05:18 | 26.07567 | -80.15845 | 16 ft | 15 kts | 270° |
| 2026-05-08 05:18 | 26.07567 | -80.15963 | 16 ft | 16 kts | 270° |
| 2026-05-08 05:18 | 26.07569 | -80.16086 | 17 ft | 16 kts | 271° |
| 2026-05-08 05:18 | 26.07570 | -80.16214 | 17 ft | 17 kts | 268° |
| 2026-05-08 05:19 | 26.07570 | -80.16345 | 17 ft | 17 kts | 270° |
| 2026-05-08 05:19 | 26.07570 | -80.16459 | 17 ft | 14 kts | 270° |
| 2026-05-08 05:19 | 26.07571 | -80.16564 | 16 ft | 11 kts | 270° |
| 2026-05-08 05:19 | 26.07580 | -80.16631 | 17 ft | 7 kts | 306° |
| 2026-05-08 05:20 | 26.07627 | -80.16644 | 17 ft | 7 kts | 2° |
| 2026-05-08 05:20 | 26.07673 | -80.16642 | 18 ft | 7 kts | 2° |
| 2026-05-08 05:20 | 26.07697 | -80.16608 | 18 ft | 6 kts | 88° |
| 2026-05-08 05:20 | 26.07695 | -80.16526 | 18 ft | 29 kts | 91° |
| 2026-05-08 05:21 | 26.07691 | -80.16022 | 19 ft | 99 kts | 90° |
| 2026-05-08 05:21 | 26.07688 | -80.15032 | 18 ft | 154 kts | 90° |
| 2026-05-08 05:21 | 26.07653 | -80.13773 | 452 ft | 162 kts | 92° |
| 2026-05-08 05:21 | 26.07673 | -80.12526 | 1085 ft | 161 kts | 90° |
| 2026-05-08 05:22 | 26.07718 | -80.11267 | 1596 ft | 168 kts | 88° |
| 2026-05-08 05:22 | 26.07828 | -80.09923 | 1907 ft | 182 kts | 78° |
| 2026-05-08 05:22 | 26.08388 | -80.08600 | 2169 ft | 198 kts | 55° |
| 2026-05-08 05:22 | 26.09379 | -80.07464 | 2397 ft | 214 kts | 40° |
| 2026-05-08 05:23 | 26.10667 | -80.06532 | 2735 ft | 226 kts | 27° |
| 2026-05-08 05:23 | 26.12167 | -80.05911 | 3229 ft | 233 kts | 18° |
| 2026-05-08 05:23 | 26.13721 | -80.05345 | 3735 ft | 239 kts | 14° |
| 2026-05-08 05:23 | 26.15398 | -80.05064 | 4236 ft | 249 kts | 1° |
| 2026-05-08 05:24 | 26.17148 | -80.05264 | 4820 ft | 257 kts | 346° |
| 2026-05-08 05:24 | 26.18837 | -80.05976 | 5418 ft | 264 kts | 336° |
| 2026-05-08 05:24 | 26.20544 | -80.06832 | 5878 ft | 275 kts | 334° |
| 2026-05-08 05:24 | 26.22128 | -80.08053 | 6467 ft | 281 kts | 317° |
| 2026-05-08 05:25 | 26.23299 | -80.09808 | 6998 ft | 287 kts | 296° |
| 2026-05-08 05:25 | 26.24033 | -80.11901 | 7542 ft | 292 kts | 291° |
| 2026-05-08 05:25 | 26.24763 | -80.14026 | 8122 ft | 295 kts | 292° |
| 2026-05-08 05:25 | 26.25543 | -80.16151 | 8716 ft | 297 kts | 297° |
| 2026-05-08 05:26 | 26.26614 | -80.18123 | 9302 ft | 299 kts | 304° |
| 2026-05-08 05:26 | 26.27761 | -80.20074 | 9883 ft | 302 kts | 304° |
| 2026-05-08 05:26 | 26.28924 | -80.22046 | 10379 ft | 307 kts | 304° |
| 2026-05-08 05:26 | 26.30087 | -80.24031 | 10766 ft | 315 kts | 303° |
| 2026-05-08 05:27 | 26.31301 | -80.26128 | 11012 ft | 329 kts | 303° |
| 2026-05-08 05:27 | 26.32558 | -80.28326 | 11263 ft | 343 kts | 303° |
| 2026-05-08 05:27 | 26.33848 | -80.30613 | 11520 ft | 355 kts | 302° |
| 2026-05-08 05:27 | 26.35176 | -80.32989 | 11766 ft | 367 kts | 302° |
| 2026-05-08 05:28 | 26.36543 | -80.35439 | 12031 ft | 377 kts | 302° |
| 2026-05-08 05:28 | 26.37954 | -80.37929 | 12480 ft | 381 kts | 303° |
| 2026-05-08 05:28 | 26.39380 | -80.40415 | 13106 ft | 380 kts | 303° |
| 2026-05-08 05:28 | 26.40799 | -80.42895 | 13756 ft | 379 kts | 303° |
| 2026-05-08 05:29 | 26.42213 | -80.45378 | 14261 ft | 380 kts | 303° |
| 2026-05-08 05:29 | 26.43628 | -80.47880 | 14733 ft | 383 kts | 302° |
| 2026-05-08 05:29 | 26.45047 | -80.50405 | 15175 ft | 386 kts | 302° |
| 2026-05-08 05:29 | 26.46491 | -80.52937 | 15617 ft | 389 kts | 305° |
| 2026-05-08 05:30 | 26.48307 | -80.55185 | 16018 ft | 393 kts | 319° |
| 2026-05-08 05:30 | 26.50591 | -80.56860 | 16553 ft | 394 kts | 333° |
| 2026-05-08 05:30 | 26.53151 | -80.57948 | 17081 ft | 396 kts | 343° |
| 2026-05-08 05:30 | 26.55834 | -80.58700 | 17577 ft | 398 kts | 343° |
| 2026-05-08 05:31 | 26.58508 | -80.59523 | 18054 ft | 400 kts | 342° |
| 2026-05-08 05:31 | 26.61193 | -80.60409 | 18497 ft | 403 kts | 341° |
| 2026-05-08 05:31 | 26.63882 | -80.61311 | 18914 ft | 405 kts | 341° |
| 2026-05-08 05:31 | 26.66586 | -80.62209 | 19335 ft | 407 kts | 341° |
| 2026-05-08 05:32 | 26.69306 | -80.63098 | 19747 ft | 409 kts | 341° |
| 2026-05-08 05:32 | 26.72047 | -80.63983 | 20155 ft | 410 kts | 341° |
| 2026-05-08 05:32 | 26.74799 | -80.64863 | 20544 ft | 412 kts | 341° |
| 2026-05-08 05:32 | 26.77565 | -80.65741 | 20935 ft | 414 kts | 341° |
| 2026-05-08 05:33 | 26.79402 | -80.66323 | 21186 ft | 415 kts | 341° |
| 2026-05-08 05:33 | 26.83134 | -80.67504 | 21702 ft | 418 kts | 341° |
| 2026-05-08 05:33 | 26.84991 | -80.68093 | 21922 ft | 419 kts | 341° |
| 2026-05-08 05:33 | 26.87803 | -80.68987 | 22291 ft | 421 kts | 340° |
| 2026-05-08 05:34 | 26.90621 | -80.69885 | 22660 ft | 423 kts | 340° |
| 2026-05-08 05:34 | 26.93395 | -80.70814 | 22999 ft | 424 kts | 339° |
| 2026-05-08 05:34 | 26.96248 | -80.71856 | 23362 ft | 425 kts | 338° |
| 2026-05-08 05:34 | 26.99050 | -80.72934 | 23699 ft | 426 kts | 337° |
| 2026-05-08 05:35 | 27.01851 | -80.74036 | 23997 ft | 428 kts | 336° |
| 2026-05-08 05:35 | 27.04661 | -80.75142 | 24310 ft | 429 kts | 336° |
| 2026-05-08 05:35 | 27.07491 | -80.76244 | 24618 ft | 431 kts | 337° |
| 2026-05-08 05:35 | 27.10332 | -80.77335 | 24920 ft | 432 kts | 337° |
| 2026-05-08 05:36 | 27.13189 | -80.78423 | 25220 ft | 434 kts | 337° |
| 2026-05-08 05:36 | 27.16056 | -80.79509 | 25514 ft | 436 kts | 337° |
| 2026-05-08 05:36 | 27.18934 | -80.80594 | 25806 ft | 437 kts | 337° |
| 2026-05-08 05:36 | 27.21822 | -80.81678 | 26093 ft | 439 kts | 337° |
| 2026-05-08 05:37 | 27.24727 | -80.82769 | 26378 ft | 440 kts | 337° |
| 2026-05-08 05:37 | 27.27633 | -80.83868 | 26658 ft | 442 kts | 336° |
| 2026-05-08 05:37 | 27.30549 | -80.84975 | 26932 ft | 443 kts | 336° |
| 2026-05-08 05:37 | 27.33476 | -80.86099 | 27197 ft | 445 kts | 336° |
| 2026-05-08 05:38 | 27.36396 | -80.87267 | 27487 ft | 446 kts | 335° |
| 2026-05-08 05:38 | 27.39311 | -80.88473 | 27761 ft | 447 kts | 335° |
| 2026-05-08 05:38 | 27.42233 | -80.89698 | 28039 ft | 449 kts | 335° |
| 2026-05-08 05:38 | 27.45168 | -80.90928 | 28317 ft | 451 kts | 335° |
| 2026-05-08 05:39 | 27.48109 | -80.92153 | 28581 ft | 452 kts | 335° |
| 2026-05-08 05:39 | 27.51060 | -80.93376 | 28939 ft | 451 kts | 335° |
| 2026-05-08 05:39 | 27.54007 | -80.94594 | 29327 ft | 450 kts | 335° |
| 2026-05-08 05:39 | 27.56941 | -80.95803 | 29706 ft | 449 kts | 335° |
| 2026-05-08 05:40 | 27.59833 | -80.96993 | 30080 ft | 447 kts | 335° |
| 2026-05-08 05:40 | 27.62753 | -80.98193 | 30405 ft | 446 kts | 335° |
| 2026-05-08 05:40 | 27.65705 | -80.99406 | 30729 ft | 445 kts | 334° |
| 2026-05-08 05:40 | 27.68571 | -81.00588 | 31038 ft | 444 kts | 334° |
| 2026-05-08 05:41 | 27.71466 | -81.01784 | 31346 ft | 443 kts | 334° |
| 2026-05-08 05:41 | 27.74356 | -81.02978 | 31656 ft | 442 kts | 334° |
| 2026-05-08 05:41 | 27.77243 | -81.04174 | 31968 ft | 441 kts | 334° |
| 2026-05-08 05:41 | 27.80126 | -81.05369 | 32297 ft | 440 kts | 334° |
| 2026-05-08 05:42 | 27.82995 | -81.06559 | 32592 ft | 439 kts | 334° |
| 2026-05-08 05:42 | 27.85865 | -81.07750 | 32893 ft | 439 kts | 334° |
| 2026-05-08 05:42 | 27.88723 | -81.08937 | 33191 ft | 438 kts | 334° |
| 2026-05-08 05:42 | 27.91581 | -81.10126 | 33482 ft | 437 kts | 334° |
| 2026-05-08 05:43 | 27.94435 | -81.11314 | 33792 ft | 437 kts | 334° |
| 2026-05-08 05:43 | 27.97284 | -81.12498 | 33982 ft | 437 kts | 334° |
| 2026-05-08 05:43 | 28.00134 | -81.13680 | 34022 ft | 435 kts | 334° |
| 2026-05-08 05:44 | 28.05824 | -81.16127 | 34030 ft | 440 kts | 331° |
| 2026-05-08 05:44 | 28.11411 | -81.18968 | 34039 ft | 440 kts | 329° |
| 2026-05-08 05:45 | 28.16942 | -81.21945 | 34040 ft | 440 kts | 329° |
| 2026-05-08 05:45 | 28.22502 | -81.24879 | 34047 ft | 441 kts | 329° |
| 2026-05-08 05:46 | 28.28092 | -81.27758 | 34053 ft | 442 kts | 329° |
| 2026-05-08 05:46 | 28.33701 | -81.30629 | 34056 ft | 442 kts | 329° |
| 2026-05-08 05:47 | 28.39307 | -81.33500 | 34058 ft | 442 kts | 329° |
| 2026-05-08 05:47 | 28.44881 | -81.36348 | 34066 ft | 442 kts | 329° |
| 2026-05-08 05:48 | 28.50527 | -81.39236 | 34068 ft | 442 kts | 329° |
| 2026-05-08 05:48 | 28.56133 | -81.42103 | 34070 ft | 442 kts | 329° |
| 2026-05-08 05:49 | 28.61701 | -81.44962 | 34065 ft | 442 kts | 329° |
| 2026-05-08 05:49 | 28.67301 | -81.47842 | 34065 ft | 442 kts | 329° |
| 2026-05-08 05:50 | 28.72903 | -81.50719 | 34058 ft | 441 kts | 329° |
| 2026-05-08 05:50 | 28.78495 | -81.53598 | 34064 ft | 441 kts | 329° |
| 2026-05-08 05:51 | 28.84087 | -81.56481 | 34066 ft | 441 kts | 329° |
| 2026-05-08 05:51 | 28.89676 | -81.59366 | 34068 ft | 441 kts | 329° |
| 2026-05-08 05:52 | 28.95677 | -81.61221 | 34061 ft | 460 kts | 347° |
| 2026-05-08 05:52 | 29.02065 | -81.61780 | 34062 ft | 461 kts | 347° |
| 2026-05-08 05:53 | 29.08459 | -81.62358 | 34049 ft | 461 kts | 347° |
| 2026-05-08 05:53 | 29.14846 | -81.62950 | 34045 ft | 461 kts | 347° |
| 2026-05-08 05:54 | 29.21200 | -81.63534 | 34047 ft | 461 kts | 347° |
| 2026-05-08 05:54 | 29.27596 | -81.64122 | 34043 ft | 461 kts | 347° |
| 2026-05-08 05:55 | 29.33995 | -81.64707 | 34042 ft | 461 kts | 347° |
| 2026-05-08 05:55 | 29.40394 | -81.65301 | 34043 ft | 462 kts | 347° |
| 2026-05-08 05:56 | 29.46802 | -81.65894 | 34043 ft | 462 kts | 347° |
| 2026-05-08 05:56 | 29.53216 | -81.66484 | 34042 ft | 462 kts | 347° |
| 2026-05-08 05:57 | 29.59629 | -81.67066 | 34039 ft | 463 kts | 347° |
| 2026-05-08 05:57 | 29.66043 | -81.67655 | 34031 ft | 463 kts | 346° |
| 2026-05-08 05:58 | 29.72465 | -81.68250 | 34035 ft | 463 kts | 346° |
| 2026-05-08 05:58 | 29.78888 | -81.68851 | 34034 ft | 463 kts | 346° |
| 2026-05-08 05:59 | 29.85321 | -81.69448 | 34039 ft | 464 kts | 346° |
| 2026-05-08 05:59 | 29.91754 | -81.70046 | 34034 ft | 464 kts | 346° |
| 2026-05-08 06:00 | 29.98192 | -81.70645 | 34039 ft | 464 kts | 346° |
| 2026-05-08 06:00 | 30.04637 | -81.71247 | 34042 ft | 465 kts | 346° |
| 2026-05-08 06:01 | 30.11083 | -81.71842 | 34046 ft | 465 kts | 346° |
| 2026-05-08 06:01 | 30.17531 | -81.72444 | 34055 ft | 465 kts | 346° |
| 2026-05-08 06:02 | 30.23984 | -81.73047 | 34051 ft | 465 kts | 346° |
| 2026-05-08 06:02 | 30.30439 | -81.73654 | 34074 ft | 465 kts | 346° |
| 2026-05-08 06:03 | 30.36896 | -81.74261 | 34073 ft | 465 kts | 346° |
| 2026-05-08 06:03 | 30.43350 | -81.74864 | 34040 ft | 465 kts | 346° |
| 2026-05-08 06:04 | 30.49801 | -81.75468 | 34037 ft | 465 kts | 346° |
| 2026-05-08 06:04 | 30.56256 | -81.76074 | 34027 ft | 465 kts | 345° |
| 2026-05-08 06:05 | 30.62697 | -81.76728 | 34026 ft | 460 kts | 341° |
| 2026-05-08 06:05 | 30.68976 | -81.77972 | 34028 ft | 458 kts | 340° |
| 2026-05-08 06:06 | 30.75252 | -81.79234 | 34022 ft | 458 kts | 340° |
| 2026-05-08 06:06 | 30.81530 | -81.80486 | 34014 ft | 458 kts | 340° |
| 2026-05-08 06:07 | 30.87800 | -81.81739 | 34014 ft | 457 kts | 340° |
| 2026-05-08 06:07 | 30.94068 | -81.83004 | 34015 ft | 457 kts | 340° |
| 2026-05-08 06:08 | 31.00331 | -81.84272 | 34010 ft | 457 kts | 340° |
| 2026-05-08 06:08 | 31.06553 | -81.85524 | 34015 ft | 457 kts | 340° |
| 2026-05-08 06:09 | 31.12856 | -81.86790 | 34014 ft | 456 kts | 340° |
| 2026-05-08 06:09 | 31.19068 | -81.88040 | 34017 ft | 456 kts | 339° |
| 2026-05-08 06:10 | 31.25314 | -81.89300 | 34029 ft | 455 kts | 339° |
| 2026-05-08 06:10 | 31.31552 | -81.90558 | 34043 ft | 455 kts | 339° |
| 2026-05-08 06:11 | 31.37789 | -81.91819 | 34055 ft | 454 kts | 339° |
| 2026-05-08 06:11 | 31.44015 | -81.93085 | 34070 ft | 454 kts | 339° |
| 2026-05-08 06:12 | 31.50230 | -81.94357 | 34077 ft | 453 kts | 339° |
| 2026-05-08 06:12 | 31.56433 | -81.95620 | 34078 ft | 453 kts | 339° |
| 2026-05-08 06:13 | 31.62638 | -81.96879 | 34073 ft | 452 kts | 339° |
| 2026-05-08 06:13 | 31.68830 | -81.98135 | 34064 ft | 452 kts | 339° |
| 2026-05-08 06:14 | 31.75018 | -81.99406 | 34057 ft | 451 kts | 339° |
| 2026-05-08 06:14 | 31.81201 | -82.00675 | 34041 ft | 451 kts | 339° |
| 2026-05-08 06:15 | 31.87414 | -82.01816 | 34046 ft | 461 kts | 345° |
| 2026-05-08 06:15 | 31.93868 | -82.02056 | 34050 ft | 464 kts | 346° |
| 2026-05-08 06:16 | 32.00323 | -82.02271 | 34069 ft | 464 kts | 346° |
| 2026-05-08 06:16 | 32.06781 | -82.02491 | 34068 ft | 464 kts | 346° |
| 2026-05-08 06:17 | 32.16474 | -82.02832 | 34055 ft | 465 kts | 346° |
| 2026-05-08 06:17 | 32.22945 | -82.03055 | 34060 ft | 465 kts | 346° |
| 2026-05-08 06:18 | 32.29423 | -82.03277 | 34067 ft | 466 kts | 346° |
| 2026-05-08 06:18 | 32.35905 | -82.03503 | 34071 ft | 466 kts | 346° |
| 2026-05-08 06:19 | 32.42377 | -82.03767 | 34072 ft | 459 kts | 342° |
| 2026-05-08 06:19 | 32.45459 | -82.04407 | 34073 ft | 442 kts | 332° |
| 2026-05-08 06:19 | 32.48299 | -82.05613 | 34067 ft | 426 kts | 323° |
| 2026-05-08 06:20 | 32.53394 | -82.08896 | 34062 ft | 419 kts | 319° |
| 2026-05-08 06:20 | 32.58480 | -82.12251 | 34055 ft | 419 kts | 320° |
| 2026-05-08 06:21 | 32.63575 | -82.15599 | 34037 ft | 419 kts | 320° |
| 2026-05-08 06:21 | 32.68670 | -82.18947 | 34028 ft | 419 kts | 320° |
| 2026-05-08 06:22 | 32.72936 | -82.21757 | 34029 ft | 418 kts | 319° |
| 2026-05-08 06:22 | 32.78024 | -82.25115 | 34036 ft | 418 kts | 319° |
| 2026-05-08 06:23 | 32.83113 | -82.28476 | 34034 ft | 418 kts | 319° |
| 2026-05-08 06:23 | 32.88192 | -82.31840 | 34036 ft | 418 kts | 319° |
| 2026-05-08 06:24 | 32.93269 | -82.35202 | 34033 ft | 417 kts | 319° |
| 2026-05-08 06:24 | 32.98303 | -82.38550 | 34036 ft | 417 kts | 319° |
| 2026-05-08 06:25 | 33.03396 | -82.41938 | 34037 ft | 417 kts | 319° |
| 2026-05-08 06:25 | 33.08461 | -82.45303 | 34036 ft | 416 kts | 319° |
| 2026-05-08 06:26 | 33.13487 | -82.48645 | 34036 ft | 416 kts | 319° |
| 2026-05-08 06:26 | 33.18545 | -82.52014 | 34042 ft | 416 kts | 319° |
| 2026-05-08 06:27 | 33.23604 | -82.55393 | 34057 ft | 416 kts | 319° |
| 2026-05-08 06:27 | 33.28660 | -82.58774 | 34073 ft | 416 kts | 319° |
| 2026-05-08 06:28 | 33.33707 | -82.62159 | 34088 ft | 416 kts | 319° |
| 2026-05-08 06:28 | 33.38761 | -82.65549 | 34097 ft | 416 kts | 319° |
| 2026-05-08 06:29 | 33.43812 | -82.68942 | 34103 ft | 416 kts | 319° |
| 2026-05-08 06:29 | 33.48864 | -82.72338 | 34102 ft | 417 kts | 319° |
| 2026-05-08 06:30 | 33.53919 | -82.75742 | 34085 ft | 416 kts | 319° |
| 2026-05-08 06:30 | 33.58964 | -82.79149 | 34072 ft | 416 kts | 319° |
| 2026-05-08 06:31 | 33.64014 | -82.82555 | 34081 ft | 416 kts | 319° |
| 2026-05-08 06:31 | 33.69054 | -82.85959 | 34090 ft | 416 kts | 319° |
| 2026-05-08 06:32 | 33.74092 | -82.89371 | 34089 ft | 415 kts | 319° |
| 2026-05-08 06:32 | 33.79117 | -82.92777 | 34090 ft | 414 kts | 318° |
| 2026-05-08 06:33 | 33.84132 | -82.96184 | 34088 ft | 414 kts | 318° |
| 2026-05-08 06:33 | 33.89135 | -82.99587 | 34080 ft | 413 kts | 318° |
| 2026-05-08 06:34 | 33.94131 | -83.02985 | 34073 ft | 412 kts | 319° |
| 2026-05-08 06:34 | 33.99120 | -83.06380 | 34074 ft | 412 kts | 319° |
| 2026-05-08 06:35 | 34.04104 | -83.09774 | 34074 ft | 411 kts | 318° |
| 2026-05-08 06:35 | 34.09064 | -83.13169 | 34074 ft | 410 kts | 318° |
| 2026-05-08 06:36 | 34.14021 | -83.16561 | 34073 ft | 409 kts | 318° |
| 2026-05-08 06:36 | 34.18968 | -83.19950 | 34059 ft | 409 kts | 318° |
| 2026-05-08 06:37 | 34.23907 | -83.23340 | 34073 ft | 408 kts | 318° |
| 2026-05-08 06:37 | 34.28843 | -83.26733 | 34070 ft | 408 kts | 318° |
| 2026-05-08 06:38 | 34.33767 | -83.30123 | 34080 ft | 407 kts | 318° |
| 2026-05-08 06:38 | 34.38649 | -83.33489 | 34088 ft | 406 kts | 318° |
| 2026-05-08 06:39 | 34.43552 | -83.36877 | 34083 ft | 406 kts | 318° |
| 2026-05-08 06:39 | 34.48458 | -83.40270 | 34082 ft | 406 kts | 318° |
| 2026-05-08 06:40 | 34.53365 | -83.43663 | 34084 ft | 406 kts | 318° |
| 2026-05-08 06:40 | 34.58269 | -83.47059 | 34082 ft | 406 kts | 318° |
| 2026-05-08 06:41 | 34.63186 | -83.50465 | 34080 ft | 407 kts | 318° |
| 2026-05-08 06:41 | 34.68103 | -83.53881 | 34077 ft | 408 kts | 318° |
| 2026-05-08 06:42 | 34.73030 | -83.57307 | 34076 ft | 408 kts | 317° |
| 2026-05-08 06:42 | 34.77949 | -83.60739 | 34077 ft | 408 kts | 317° |
| 2026-05-08 06:43 | 34.82870 | -83.64178 | 34085 ft | 408 kts | 317° |
| 2026-05-08 06:43 | 34.87802 | -83.67620 | 34090 ft | 409 kts | 317° |
| 2026-05-08 06:44 | 34.92735 | -83.71068 | 34094 ft | 409 kts | 317° |
| 2026-05-08 06:44 | 34.97668 | -83.74518 | 34099 ft | 409 kts | 317° |
| 2026-05-08 06:45 | 35.02602 | -83.77981 | 34115 ft | 409 kts | 317° |
| 2026-05-08 06:45 | 35.07538 | -83.81451 | 34127 ft | 409 kts | 317° |
| 2026-05-08 06:46 | 35.12474 | -83.84920 | 34130 ft | 409 kts | 317° |
| 2026-05-08 06:46 | 35.17394 | -83.88388 | 34131 ft | 409 kts | 317° |
| 2026-05-08 06:47 | 35.22323 | -83.91866 | 34127 ft | 409 kts | 316° |
| 2026-05-08 06:47 | 35.27243 | -83.95342 | 34132 ft | 408 kts | 316° |
| 2026-05-08 06:48 | 35.32157 | -83.98817 | 34130 ft | 408 kts | 316° |
| 2026-05-08 06:48 | 35.37031 | -84.02266 | 34127 ft | 407 kts | 316° |
| 2026-05-08 06:49 | 35.41928 | -84.05745 | 34119 ft | 406 kts | 316° |
| 2026-05-08 06:49 | 35.46809 | -84.09219 | 34115 ft | 405 kts | 316° |
| 2026-05-08 06:50 | 35.51685 | -84.12688 | 34120 ft | 405 kts | 315° |
| 2026-05-08 06:50 | 35.56553 | -84.16148 | 34122 ft | 404 kts | 315° |
| 2026-05-08 06:51 | 35.61408 | -84.19611 | 34125 ft | 403 kts | 315° |
| 2026-05-08 06:51 | 35.66247 | -84.23074 | 34126 ft | 402 kts | 315° |
| 2026-05-08 06:52 | 35.71080 | -84.26543 | 34119 ft | 402 kts | 315° |
| 2026-05-08 06:52 | 35.75908 | -84.30003 | 34125 ft | 401 kts | 315° |
| 2026-05-08 06:53 | 35.80727 | -84.33455 | 34118 ft | 400 kts | 315° |
| 2026-05-08 06:53 | 35.85538 | -84.36902 | 34121 ft | 399 kts | 315° |
| 2026-05-08 06:54 | 35.90334 | -84.40355 | 34131 ft | 399 kts | 315° |
| 2026-05-08 06:54 | 35.95112 | -84.43798 | 34087 ft | 395 kts | 314° |
| 2026-05-08 06:55 | 35.97471 | -84.45492 | 33964 ft | 390 kts | 314° |
| 2026-05-08 06:55 | 35.99814 | -84.47179 | 33669 ft | 389 kts | 314° |
| 2026-05-08 06:55 | 36.02150 | -84.48868 | 33285 ft | 389 kts | 314° |
| 2026-05-08 06:55 | 36.04481 | -84.50560 | 32910 ft | 389 kts | 315° |
| 2026-05-08 06:56 | 36.06809 | -84.52250 | 32540 ft | 389 kts | 315° |
| 2026-05-08 06:56 | 36.09146 | -84.53949 | 32175 ft | 390 kts | 315° |
| 2026-05-08 06:56 | 36.11491 | -84.55653 | 31810 ft | 391 kts | 315° |
| 2026-05-08 06:56 | 36.13842 | -84.57358 | 31453 ft | 392 kts | 316° |
| 2026-05-08 06:57 | 36.16198 | -84.59066 | 31098 ft | 394 kts | 316° |
| 2026-05-08 06:57 | 36.18567 | -84.60786 | 30741 ft | 395 kts | 316° |
| 2026-05-08 06:57 | 36.20943 | -84.62513 | 30397 ft | 397 kts | 317° |
| 2026-05-08 06:57 | 36.23331 | -84.64251 | 30028 ft | 399 kts | 317° |
| 2026-05-08 06:58 | 36.25728 | -84.65993 | 29599 ft | 401 kts | 317° |
| 2026-05-08 06:58 | 36.28140 | -84.67750 | 29200 ft | 403 kts | 318° |
| 2026-05-08 06:58 | 36.30568 | -84.69522 | 28821 ft | 406 kts | 318° |
| 2026-05-08 06:58 | 36.33005 | -84.71301 | 28535 ft | 408 kts | 319° |
| 2026-05-08 06:59 | 36.35455 | -84.73088 | 28379 ft | 410 kts | 319° |
| 2026-05-08 06:59 | 36.37916 | -84.74883 | 28270 ft | 411 kts | 319° |
| 2026-05-08 06:59 | 36.40455 | -84.76588 | 28075 ft | 422 kts | 326° |
| 2026-05-08 06:59 | 36.43291 | -84.77633 | 28099 ft | 444 kts | 338° |
| 2026-05-08 07:00 | 36.46453 | -84.77844 | 28105 ft | 465 kts | 350° |
| 2026-05-08 07:00 | 36.49691 | -84.77653 | 28106 ft | 467 kts | 351° |
| 2026-05-08 07:00 | 36.56179 | -84.77223 | 28107 ft | 467 kts | 351° |
| 2026-05-08 07:01 | 36.62670 | -84.76804 | 28110 ft | 467 kts | 351° |
| 2026-05-08 07:01 | 36.69152 | -84.76416 | 28125 ft | 466 kts | 351° |
| 2026-05-08 07:02 | 36.75631 | -84.76045 | 28126 ft | 466 kts | 351° |
| 2026-05-08 07:02 | 36.82109 | -84.75667 | 28130 ft | 466 kts | 351° |
| 2026-05-08 07:03 | 36.88568 | -84.75376 | 28129 ft | 457 kts | 346° |
| 2026-05-08 07:03 | 36.91671 | -84.75833 | 28130 ft | 443 kts | 337° |
| 2026-05-08 07:03 | 36.94630 | -84.76766 | 28131 ft | 437 kts | 334° |
| 2026-05-08 07:04 | 37.00512 | -84.78718 | 28089 ft | 437 kts | 334° |
| 2026-05-08 07:04 | 37.06396 | -84.80660 | 28098 ft | 437 kts | 334° |
| 2026-05-08 07:05 | 37.12282 | -84.82601 | 28111 ft | 437 kts | 334° |
| 2026-05-08 07:05 | 37.15228 | -84.83573 | 27979 ft | 437 kts | 334° |
| 2026-05-08 07:05 | 37.18132 | -84.84526 | 27647 ft | 426 kts | 334° |